Time;durP1;ratioP1;P1;durP2;ratioP2;P2;SDS_P1;SDS_P2;PMS_P1;PMS_P2;Temp;Humidity;BMP_temperature;BMP_pressure;BME280_temperature;BME280_humidity;BME280_pressure;Samples;Min_cycle;Max_cycle;Signal;HPM_P1;HPM_P2
2022/05/15 00:01:13;;;;;;;;;;;11.70;99.90;;;;;;5055181;28;19963;-70
2022/05/15 00:03:40;;;;;;;;;;;11.70;99.90;;;;;;5066263;28;20015;-69
2022/05/15 00:06:07;;;;;;;;;;;11.70;99.90;;;;;;5065619;28;20059;-70
2022/05/15 00:08:35;;;;;;;;;;;11.80;99.90;;;;;;5056320;28;19924;-70
2022/05/15 00:11:02;;;;;;;;;;;11.80;99.90;;;;;;5058704;28;20019;-71
2022/05/15 00:13:29;;;;;;;;;;;11.70;99.90;;;;;;5065019;28;19928;-70
2022/05/15 00:15:56;;;;;;;;;;;11.60;99.90;;;;;;5059333;28;19932;-70
2022/05/15 00:18:24;;;;;;;;;;;11.60;99.90;;;;;;5071437;28;20279;-70
2022/05/15 00:20:51;;;;;;;;;;;11.60;99.90;;;;;;5069703;28;19932;-69
2022/05/15 00:23:19;;;;;;;;;;;11.70;99.90;;;;;;5060552;28;19982;-70
2022/05/15 00:25:45;;;;;;;;;;;11.70;99.90;;;;;;5069638;28;19925;-70
2022/05/15 00:28:15;;;;;;;;;;;11.60;99.90;;;;;;5055525;28;20012;-71
2022/05/15 00:30:43;;;;;;;;;;;11.60;99.90;;;;;;5056367;28;20698;-70
2022/05/15 00:33:12;;;;;;;;;;;11.60;99.90;;;;;;5053899;28;20555;-70
2022/05/15 00:35:39;;;;;;;;;;;11.60;99.90;;;;;;5067241;28;19976;-69
2022/05/15 00:38:06;;;;;;;;;;;11.60;99.90;;;;;;5067472;28;19924;-71
2022/05/15 00:40:34;;;;;;;;;;;11.60;99.90;;;;;;5058943;28;19931;-70
2022/05/15 00:43:00;;;;;;;;;;;11.60;99.90;;;;;;5072519;28;19976;-70
2022/05/15 00:45:27;;;;;;;;;;;11.60;99.90;;;;;;5065171;28;20394;-70
2022/05/15 00:47:54;;;;;;;;;;;11.50;99.90;;;;;;5085118;28;19951;-72
2022/05/15 00:50:23;;;;;;;;;;;11.50;99.90;;;;;;5052473;28;19924;-71
2022/05/15 00:52:54;;;;;;;;;;;11.40;99.90;;;;;;5067400;28;20324;-72
2022/05/15 00:55:36;;;;;;;;;;;11.30;99.90;;;;;;5061860;28;20011;-71
2022/05/15 00:58:08;;;;;;;;;;;11.10;99.90;;;;;;5069996;28;19934;-69
2022/05/15 01:00:35;;;;;;;;;;;10.80;99.90;;;;;;5078419;28;19924;-69
2022/05/15 01:03:16;;;;;;;;;;;10.70;99.90;;;;;;5074727;28;19924;-70
2022/05/15 01:05:44;;;;;;;;;;;10.50;99.90;;;;;;5065411;28;20023;-70
2022/05/15 01:08:10;;;;;;;;;;;10.30;99.90;;;;;;5069520;28;20003;-70
2022/05/15 01:10:40;;;;;;;;;;;10.20;99.90;;;;;;5065102;28;20023;-70
2022/05/15 01:13:06;;;;;;;;;;;10.00;99.90;;;;;;5058629;28;20391;-70
2022/05/15 01:15:33;;;;;;;;;;;9.90;99.90;;;;;;5061605;28;20012;-70
2022/05/15 01:18:00;;;;;;;;;;;9.70;99.90;;;;;;5060027;28;19932;-70
2022/05/15 01:20:27;;;;;;;;;;;9.60;99.90;;;;;;5057774;28;19979;-70
2022/05/15 01:22:54;;;;;;;;;;;9.60;99.90;;;;;;5061205;28;19931;-70
2022/05/15 01:25:25;;;;;;;;;;;9.50;99.90;;;;;;5058472;28;20332;-71
2022/05/15 01:28:01;;;;;;;;;;;9.40;99.90;;;;;;5070367;28;19951;-70
2022/05/15 01:30:28;;;;;;;;;;;9.50;99.90;;;;;;5072668;28;20438;-70
2022/05/15 01:32:55;;;;;;;;;;;9.40;99.90;;;;;;5062241;28;20007;-70
2022/05/15 01:35:22;;;;;;;;;;;9.40;99.90;;;;;;5068750;28;20294;-70
2022/05/15 01:37:49;;;;;;;;;;;9.40;99.90;;;;;;5061597;28;20325;-69
2022/05/15 01:40:16;;;;;;;;;;;9.40;99.90;;;;;;5063058;28;20011;-70
2022/05/15 01:42:43;;;;;;;;;;;9.40;99.90;;;;;;5075071;28;19928;-70
2022/05/15 01:45:12;;;;;;;;;;;9.50;99.90;;;;;;5065607;28;19966;-70
2022/05/15 01:47:38;;;;;;;;;;;9.50;99.90;;;;;;5058478;28;20268;-70
2022/05/15 01:50:06;;;;;;;;;;;9.50;99.90;;;;;;5069148;28;20432;-69
2022/05/15 01:52:41;;;;;;;;;;;9.50;99.90;;;;;;5070755;28;19932;-71
2022/05/15 01:55:08;;;;;;;;;;;9.50;99.90;;;;;;5072986;28;20005;-71
2022/05/15 01:57:34;;;;;;;;;;;9.40;99.90;;;;;;5069355;28;19924;-70
2022/05/15 02:00:01;;;;;;;;;;;9.30;99.90;;;;;;5083364;28;20010;-70
2022/05/15 02:02:29;;;;;;;;;;;9.20;99.90;;;;;;5068455;28;20046;-70
2022/05/15 02:04:56;;;;;;;;;;;9.20;99.90;;;;;;5065034;28;19931;-70
2022/05/15 02:07:23;;;;;;;;;;;9.20;99.90;;;;;;5063684;28;19972;-69
2022/05/15 02:09:50;;;;;;;;;;;9.30;99.90;;;;;;5064911;28;20605;-69
2022/05/15 02:12:17;;;;;;;;;;;9.40;99.90;;;;;;5065871;28;19925;-69
2022/05/15 02:14:43;;;;;;;;;;;9.40;99.90;;;;;;5066756;28;20372;-70
2022/05/15 02:17:10;;;;;;;;;;;9.50;99.90;;;;;;5059367;28;20394;-70
2022/05/15 02:19:37;;;;;;;;;;;9.60;99.90;;;;;;5055251;28;19931;-70
2022/05/15 02:22:05;;;;;;;;;;;9.70;99.90;;;;;;5064590;28;20027;-70
2022/05/15 02:24:31;;;;;;;;;;;9.60;99.90;;;;;;5057678;28;20283;-70
2022/05/15 02:27:01;;;;;;;;;;;9.60;99.90;;;;;;5100441;28;20011;-70
2022/05/15 02:29:28;;;;;;;;;;;9.60;99.90;;;;;;5067106;28;19974;-70
2022/05/15 02:31:54;;;;;;;;;;;9.50;99.90;;;;;;5067712;28;20370;-70
2022/05/15 02:34:21;;;;;;;;;;;9.40;99.90;;;;;;5062289;28;19931;-70
2022/05/15 02:36:48;;;;;;;;;;;9.30;99.90;;;;;;5069738;28;19930;-70
2022/05/15 02:39:14;;;;;;;;;;;9.30;99.90;;;;;;5068301;28;20588;-68
2022/05/15 02:41:41;;;;;;;;;;;9.30;99.90;;;;;;5071490;28;20007;-68
2022/05/15 02:44:08;;;;;;;;;;;9.20;99.90;;;;;;5063783;28;19931;-69
2022/05/15 02:46:34;;;;;;;;;;;9.20;99.90;;;;;;5069586;28;19925;-69
2022/05/15 02:51:49;;;;;;;;;;;9.10;99.90;;;;;;5070780;28;19932;-69
2022/05/15 02:54:16;;;;;;;;;;;9.10;99.90;;;;;;5073691;28;19928;-69
2022/05/15 02:56:43;;;;;;;;;;;9.10;99.90;;;;;;5067888;28;19935;-69
2022/05/15 02:59:10;;;;;;;;;;;9.10;99.90;;;;;;5059377;28;19956;-70
2022/05/15 03:01:37;;;;;;;;;;;9.10;99.90;;;;;;5060108;28;19929;-70
2022/05/15 03:04:04;;;;;;;;;;;9.20;99.90;;;;;;5070076;28;20011;-69
2022/05/15 03:06:33;;;;;;;;;;;9.30;99.90;;;;;;5061830;28;19933;-69
2022/05/15 03:09:00;;;;;;;;;;;9.30;99.90;;;;;;5072166;28;19924;-70
2022/05/15 03:11:26;;;;;;;;;;;9.30;99.90;;;;;;5065121;28;19925;-70
2022/05/15 03:13:53;;;;;;;;;;;9.30;99.90;;;;;;5067402;28;19935;-70
2022/05/15 03:16:20;;;;;;;;;;;9.30;99.90;;;;;;5068395;28;20391;-69
2022/05/15 03:18:49;;;;;;;;;;;9.30;99.90;;;;;;5067849;28;19924;-69
2022/05/15 03:21:29;;;;;;;;;;;9.40;99.90;;;;;;5076853;28;20290;-70
2022/05/15 03:23:56;;;;;;;;;;;9.60;99.90;;;;;;5072577;28;19931;-70
2022/05/15 03:26:23;;;;;;;;;;;9.60;99.90;;;;;;5068419;28;19935;-69
2022/05/15 03:28:50;;;;;;;;;;;9.70;99.90;;;;;;5067379;28;19931;-70
2022/05/15 03:31:17;;;;;;;;;;;9.80;99.90;;;;;;5070994;28;19986;-71
2022/05/15 03:33:45;;;;;;;;;;;9.80;99.90;;;;;;5069624;28;20341;-71
2022/05/15 03:36:12;;;;;;;;;;;9.70;99.90;;;;;;5062348;28;20019;-70
2022/05/15 03:38:40;;;;;;;;;;;9.70;99.90;;;;;;5072183;28;19924;-70
2022/05/15 03:41:07;;;;;;;;;;;9.70;99.90;;;;;;5067118;28;19935;-70
2022/05/15 03:43:35;;;;;;;;;;;9.70;99.90;;;;;;5069877;28;20003;-70
2022/05/15 03:46:02;;;;;;;;;;;9.60;99.90;;;;;;5070395;28;19925;-70
2022/05/15 03:48:29;;;;;;;;;;;9.60;99.90;;;;;;5100775;28;19926;-70
2022/05/15 03:50:56;;;;;;;;;;;9.60;99.90;;;;;;5079608;28;20625;-70
2022/05/15 03:53:25;;;;;;;;;;;9.60;99.90;;;;;;5063882;28;20358;-70
2022/05/15 03:55:55;;;;;;;;;;;9.70;99.90;;;;;;5065892;28;20013;-70
2022/05/15 03:58:22;;;;;;;;;;;9.70;99.90;;;;;;5066396;28;19978;-70
2022/05/15 04:00:56;;;;;;;;;;;9.70;99.90;;;;;;5061770;28;19929;-70
2022/05/15 04:03:23;;;;;;;;;;;9.80;99.90;;;;;;5064673;28;19928;-70
2022/05/15 04:05:50;;;;;;;;;;;9.90;99.90;;;;;;5059033;28;19924;-70
2022/05/15 04:08:16;;;;;;;;;;;9.90;99.90;;;;;;5062828;28;20538;-70
2022/05/15 04:10:43;;;;;;;;;;;10.00;99.90;;;;;;5067377;28;19979;-70
2022/05/15 04:13:10;;;;;;;;;;;10.00;99.90;;;;;;5067422;28;20066;-70
2022/05/15 04:15:37;;;;;;;;;;;10.10;99.90;;;;;;5067855;28;20361;-70
2022/05/15 04:18:05;;;;;;;;;;;10.20;99.90;;;;;;5069848;28;19928;-70
2022/05/15 04:20:33;;;;;;;;;;;10.30;99.90;;;;;;5066019;28;20007;-70
2022/05/15 04:22:59;;;;;;;;;;;10.40;99.90;;;;;;5061880;28;19928;-71
2022/05/15 04:25:27;;;;;;;;;;;10.50;99.90;;;;;;5074972;28;20019;-70
2022/05/15 04:27:53;;;;;;;;;;;10.50;99.90;;;;;;5065102;28;20344;-70
2022/05/15 04:30:23;;;;;;;;;;;10.60;99.90;;;;;;5065855;28;19956;-70
2022/05/15 04:32:51;;;;;;;;;;;10.70;99.90;;;;;;5057616;28;19925;-68
2022/05/15 04:35:19;;;;;;;;;;;10.80;99.90;;;;;;5067520;28;19928;-69
2022/05/15 04:37:45;;;;;;;;;;;11.10;99.90;;;;;;5059371;28;19928;-70
2022/05/15 04:40:13;;;;;;;;;;;11.80;99.90;;;;;;5067291;28;20007;-70
2022/05/15 04:42:40;;;;;;;;;;;12.80;99.90;;;;;;5061614;28;19933;-69
2022/05/15 04:45:07;;;;;;;;;;;13.70;99.90;;;;;;5064801;28;19970;-69
2022/05/15 04:47:34;;;;;;;;;;;14.30;99.90;;;;;;5064840;28;19932;-70
2022/05/15 04:50:01;;;;;;;;;;;14.80;99.90;;;;;;5065686;28;20419;-70
2022/05/15 04:52:27;;;;;;;;;;;15.10;99.90;;;;;;5070301;28;19941;-70
2022/05/15 04:54:54;;;;;;;;;;;15.40;99.90;;;;;;5095431;28;19924;-69
2022/05/15 04:57:21;;;;;;;;;;;15.70;99.90;;;;;;5062052;28;20071;-69
2022/05/15 04:59:50;;;;;;;;;;;15.60;99.90;;;;;;5070051;28;19924;-71
2022/05/15 05:02:19;;;;;;;;;;;15.70;99.90;;;;;;5066177;28;19972;-71
2022/05/15 05:04:46;;;;;;;;;;;16.10;99.90;;;;;;5067690;28;19925;-71
2022/05/15 05:07:13;;;;;;;;;;;16.60;99.90;;;;;;5065419;28;19971;-71
2022/05/15 05:09:39;;;;;;;;;;;17.00;99.90;;;;;;5058907;28;19935;-69
2022/05/15 05:12:06;;;;;;;;;;;17.50;99.90;;;;;;5062074;28;19930;-69
2022/05/15 05:14:33;;;;;;;;;;;18.00;99.90;;;;;;5067532;28;19932;-69
2022/05/15 05:17:00;;;;;;;;;;;;;;;;;;5059465;28;19928;-69
2022/05/15 05:19:27;;;;;;;;;;;20.00;99.90;;;;;;5061304;28;20512;-69
2022/05/15 05:21:53;;;;;;;;;;;20.20;99.90;;;;;;5074002;28;19932;-69
2022/05/15 05:24:22;;;;;;;;;;;20.30;99.90;;;;;;5060946;28;21361;-69
2022/05/15 05:26:49;;;;;;;;;;;20.30;99.90;;;;;;5090393;28;19928;-69
2022/05/15 05:29:17;;;;;;;;;;;20.30;99.90;;;;;;5051361;28;19925;-70
2022/05/15 05:31:47;;;;;;;;;;;20.00;99.90;;;;;;5065341;28;19932;-68
2022/05/15 05:34:13;;;;;;;;;;;20.00;99.90;;;;;;5062944;28;19983;-68
2022/05/15 05:36:40;;;;;;;;;;;20.50;99.90;;;;;;5067571;28;19931;-69
2022/05/15 05:39:07;;;;;;;;;;;20.90;99.90;;;;;;5063441;28;20006;-69
2022/05/15 05:41:34;;;;;;;;;;;21.00;99.90;;;;;;5059463;28;19924;-69
2022/05/15 05:44:00;;;;;;;;;;;21.40;99.90;;;;;;5058396;28;19928;-69
2022/05/15 05:46:28;;;;;;;;;;;21.80;99.90;;;;;;5063514;28;19924;-68
2022/05/15 05:48:57;;;;;;;;;;;22.10;99.90;;;;;;5056191;28;19935;-68
2022/05/15 05:51:25;;;;;;;;;;;22.70;99.90;;;;;;5066201;28;20395;-68
2022/05/15 05:53:51;;;;;;;;;;;22.40;99.90;;;;;;5089355;27;19964;-69
2022/05/15 05:56:18;;;;;;;;;;;21.90;99.90;;;;;;5061363;28;19924;-71
2022/05/15 05:58:48;;;;;;;;;;;21.60;99.90;;;;;;5065856;28;19971;-69
2022/05/15 06:01:14;;;;;;;;;;;21.50;99.90;;;;;;5069279;28;19924;-63
2022/05/15 06:06:32;;;;;;;;;;;21.50;99.90;;;;;;5045049;28;19924;-61
2022/05/15 06:08:59;;;;;;;;;;;21.50;99.90;;;;;;5056352;28;19925;-62
2022/05/15 06:11:25;;;;;;;;;;;21.30;99.90;;;;;;5059363;28;19924;-59
2022/05/15 06:13:52;;;;;;;;;;;21.30;99.90;;;;;;5066907;28;19938;-61
2022/05/15 06:16:20;;;;;;;;;;;21.10;99.90;;;;;;5064031;28;19931;-60
2022/05/15 06:18:47;;;;;;;;;;;21.10;99.90;;;;;;5051112;28;19935;-60
2022/05/15 06:21:13;;;;;;;;;;;21.10;99.90;;;;;;5061779;28;19928;-60
2022/05/15 06:23:42;;;;;;;;;;;21.30;99.90;;;;;;5061398;28;19938;-60
2022/05/15 06:26:08;;;;;;;;;;;21.60;99.90;;;;;;5067822;28;19985;-60
2022/05/15 06:28:35;;;;;;;;;;;21.70;99.90;;;;;;5059935;28;20412;-61
2022/05/15 06:31:02;;;;;;;;;;;21.80;99.90;;;;;;5062084;28;19928;-60
2022/05/15 06:33:29;;;;;;;;;;;22.00;99.90;;;;;;5059866;28;19925;-60
2022/05/15 06:35:56;;;;;;;;;;;22.30;99.90;;;;;;5062689;28;19924;-60
2022/05/15 06:38:23;;;;;;;;;;;22.60;99.90;;;;;;5067286;28;19932;-60
2022/05/15 06:40:49;;;;;;;;;;;22.90;99.90;;;;;;5062765;28;19943;-59
2022/05/15 06:43:16;;;;;;;;;;;23.40;99.90;;;;;;5060666;28;19950;-59
2022/05/15 06:45:48;;;;;;;;;;;23.20;99.90;;;;;;5066813;28;19924;-58
2022/05/15 06:48:15;;;;;;;;;;;23.50;99.90;;;;;;5061523;28;20566;-59
2022/05/15 06:50:42;;;;;;;;;;;23.20;99.90;;;;;;5066233;28;19924;-59
2022/05/15 06:53:12;;;;;;;;;;;23.40;99.90;;;;;;5063268;28;19935;-59
2022/05/15 06:57:28;;;;;;;;;;;23.20;99.90;;;;;;5061904;28;20286;-59
2022/05/15 06:58:25;;;;;;;;;;;23.40;99.90;;;;;;5068252;28;20009;-59
2022/05/15 07:00:52;;;;;;;;;;;23.20;99.90;;;;;;5062933;28;20020;-59
2022/05/15 07:03:19;;;;;;;;;;;23.00;99.90;;;;;;5064614;28;19972;-59
2022/05/15 07:05:45;;;;;;;;;;;23.50;99.90;;;;;;5057514;28;19935;-59
2022/05/15 07:08:15;;;;;;;;;;;23.60;99.90;;;;;;5070284;28;20003;-59
2022/05/15 07:10:44;;;;;;;;;;;23.70;99.90;;;;;;5062907;28;19935;-59
2022/05/15 07:13:11;;;;;;;;;;;23.90;99.90;;;;;;5065790;28;19924;-59
2022/05/15 07:15:38;;;;;;;;;;;23.20;99.90;;;;;;5062933;28;19924;-59
2022/05/15 07:18:05;;;;;;;;;;;23.60;99.90;;;;;;5073356;28;19924;-59
2022/05/15 07:20:32;;;;;;;;;;;23.40;99.90;;;;;;5071203;28;19925;-66
2022/05/15 07:23:01;;;;;;;;;;;23.90;99.90;;;;;;5058826;28;19932;-58
2022/05/15 07:25:28;;;;;;;;;;;24.50;99.90;;;;;;5066715;28;19929;-57
2022/05/15 07:27:58;;;;;;;;;;;24.90;99.90;;;;;;5067219;28;19932;-58
2022/05/15 07:30:25;;;;;;;;;;;25.40;99.90;;;;;;5064588;28;19967;-59
2022/05/15 07:32:52;;;;;;;;;;;25.60;99.90;;;;;;5071089;28;20383;-59
2022/05/15 07:35:22;;;;;;;;;;;25.40;99.90;;;;;;5059786;28;19924;-59
2022/05/15 07:37:53;;;;;;;;;;;25.70;99.90;;;;;;5067524;28;19924;-59
2022/05/15 07:40:20;;;;;;;;;;;25.80;99.90;;;;;;5068801;28;19925;-62
2022/05/15 07:42:47;;;;;;;;;;;25.50;99.90;;;;;;5058351;28;19924;-66
2022/05/15 07:45:14;;;;;;;;;;;24.90;99.90;;;;;;5057592;28;19943;-66
2022/05/15 07:47:44;;;;;;;;;;;24.90;99.90;;;;;;5080983;28;19928;-69
2022/05/15 07:50:11;;;;;;;;;;;24.90;99.90;;;;;;5057740;28;20257;-67
2022/05/15 07:52:41;;;;;;;;;;;24.60;99.90;;;;;;5064865;28;19924;-66
2022/05/15 07:55:10;;;;;;;;;;;25.00;99.90;;;;;;5067772;28;19925;-65
2022/05/15 07:57:37;;;;;;;;;;;25.20;99.90;;;;;;5062666;28;19929;-66
2022/05/15 08:00:05;;;;;;;;;;;24.90;99.90;;;;;;5058600;28;20308;-66
2022/05/15 08:02:32;;;;;;;;;;;25.30;99.90;;;;;;5059851;28;20007;-70
2022/05/15 08:08:00;;;;;;;;;;;26.00;99.90;;;;;;5050994;28;20684;-66
2022/05/15 08:10:32;;;;;;;;;;;26.40;99.90;;;;;;5068278;28;19928;-67
2022/05/15 08:13:01;;;;;;;;;;;26.70;99.90;;;;;;5067755;28;19947;-67
2022/05/15 08:15:28;;;;;;;;;;;26.70;99.90;;;;;;5064087;28;20363;-66
2022/05/15 08:23:33;;;;;;;;;;;26.50;99.90;;;;;;5060010;28;19925;-64
2022/05/15 08:23:37;;;;;;;;;;;25.70;99.90;;;;;;5058405;28;19970;-66
2022/05/15 08:26:07;;;;;;;;;;;25.40;99.90;;;;;;5063034;28;19925;-66
2022/05/15 08:28:34;;;;;;;;;;;25.40;99.90;;;;;;5064015;28;20015;-67
2022/05/15 08:31:01;;;;;;;;;;;25.00;99.90;;;;;;5062082;28;19968;-67
2022/05/15 08:33:31;;;;;;;;;;;25.20;99.90;;;;;;5067934;28;19929;-65
2022/05/15 08:35:57;;;;;;;;;;;25.40;99.90;;;;;;5065613;28;19951;-65
2022/05/15 08:38:25;;;;;;;;;;;25.50;99.90;;;;;;5072407;28;19990;-67
2022/05/15 08:40:57;;;;;;;;;;;25.80;99.90;;;;;;5075334;28;19934;-66
2022/05/15 08:43:37;;;;;;;;;;;25.80;99.90;;;;;;5076603;28;19928;-67
2022/05/15 08:46:13;;;;;;;;;;;25.80;99.90;;;;;;5068299;28;19939;-66
2022/05/15 08:48:40;;;;;;;;;;;25.90;99.90;;;;;;5062289;28;19958;-66
2022/05/15 08:51:10;;;;;;;;;;;26.00;99.90;;;;;;5072513;28;19967;-65
2022/05/15 08:53:37;;;;;;;;;;;26.80;99.90;;;;;;5060953;28;19931;-65
2022/05/15 08:56:09;;;;;;;;;;;27.40;99.90;;;;;;5071058;28;19958;-66
2022/05/15 08:58:38;;;;;;;;;;;27.90;99.90;;;;;;5061117;28;19931;-67
2022/05/15 09:01:06;;;;;;;;;;;27.30;99.90;;;;;;5088691;28;19950;-66
2022/05/15 09:03:38;;;;;;;;;;;26.20;99.90;;;;;;5073723;28;19987;-66
2022/05/15 09:06:14;;;;;;;;;;;26.00;99.90;;;;;;5072303;28;19928;-65
2022/05/15 09:09:01;;;;;;;;;;;25.90;99.90;;;;;;5061102;28;20263;-65
2022/05/15 09:11:27;;;;;;;;;;;26.20;99.90;;;;;;5067045;28;20870;-66
2022/05/15 09:13:56;;;;;;;;;;;25.70;99.90;;;;;;5064868;28;19975;-66
2022/05/15 09:16:25;;;;;;;;;;;26.10;99.90;;;;;;5070991;28;19932;-71
2022/05/15 09:19:01;;;;;;;;;;;26.90;99.90;;;;;;5066073;28;19961;-67
2022/05/15 09:21:28;;;;;;;;;;;27.40;99.90;;;;;;5063612;28;19924;-66
2022/05/15 09:23:56;;;;;;;;;;;27.10;99.90;;;;;;5066396;28;19932;-67
2022/05/15 09:26:28;;;;;;;;;;;27.20;99.90;;;;;;5058100;28;19924;-67
2022/05/15 09:28:58;;;;;;;;;;;27.20;99.90;;;;;;5067931;28;20939;-66
2022/05/15 09:31:26;;;;;;;;;;;27.10;99.90;;;;;;5066170;28;20378;-67
2022/05/15 09:33:57;;;;;;;;;;;27.80;99.90;;;;;;5069020;28;19959;-67
2022/05/15 09:36:26;;;;;;;;;;;28.30;98.90;;;;;;5063436;28;19970;-66
2022/05/15 09:39:11;;;;;;;;;;;28.50;98.70;;;;;;5067533;28;19924;-67
2022/05/15 09:44:25;;;;;;;;;;;28.70;98.30;;;;;;5062928;28;19943;-66
2022/05/15 09:46:59;;;;;;;;;;;28.90;98.30;;;;;;5072792;28;19939;-65
2022/05/15 09:49:28;;;;;;;;;;;29.10;98.50;;;;;;5064699;28;19924;-65
2022/05/15 09:51:57;;;;;;;;;;;30.10;98.10;;;;;;5061317;28;19928;-65
2022/05/15 09:54:33;;;;;;;;;;;30.20;96.70;;;;;;5072628;28;20007;-65
2022/05/15 09:57:18;;;;;;;;;;;30.50;96.70;;;;;;5065952;28;19924;-65
2022/05/15 09:59:57;;;;;;;;;;;29.90;96.70;;;;;;5069548;28;19929;-65
2022/05/15 10:02:37;;;;;;;;;;;30.20;96.40;;;;;;5080093;28;19925;-66
2022/05/15 10:05:21;;;;;;;;;;;29.50;95.70;;;;;;5072495;28;19972;-65
2022/05/15 10:07:51;;;;;;;;;;;29.80;96.00;;;;;;5078476;28;19928;-67
2022/05/15 10:10:25;;;;;;;;;;;30.50;95.80;;;;;;5098881;27;19947;-66
2022/05/15 10:13:03;;;;;;;;;;;30.30;95.40;;;;;;5069611;28;20409;-66
2022/05/15 10:15:35;;;;;;;;;;;30.10;95.80;;;;;;5073610;28;19928;-66
2022/05/15 10:18:07;;;;;;;;;;;30.20;95.60;;;;;;5064908;28;19924;-66
2022/05/15 10:20:37;;;;;;;;;;;30.10;94.70;;;;;;5057551;28;19924;-65
2022/05/15 10:23:10;;;;;;;;;;;30.20;94.90;;;;;;5060984;28;19925;-67
2022/05/15 10:25:49;;;;;;;;;;;30.80;95.50;;;;;;5068529;28;19935;-65
2022/05/15 10:28:21;;;;;;;;;;;30.70;94.30;;;;;;5074730;28;20050;-65
2022/05/15 10:31:07;;;;;;;;;;;30.70;93.40;;;;;;5053099;28;20302;-66
2022/05/15 10:33:38;;;;;;;;;;;30.30;94.60;;;;;;5063776;28;20287;-66
2022/05/15 10:36:15;;;;;;;;;;;29.60;94.00;;;;;;5089264;28;19939;-66
2022/05/15 10:38:42;;;;;;;;;;;28.80;94.10;;;;;;5069233;28;19931;-66
2022/05/15 10:41:13;;;;;;;;;;;28.10;95.00;;;;;;5063792;28;19939;-64
2022/05/15 10:43:50;;;;;;;;;;;27.70;95.40;;;;;;5072660;28;20015;-65
2022/05/15 10:46:22;;;;;;;;;;;28.10;94.50;;;;;;5060505;28;19932;-64
2022/05/15 10:49:01;;;;;;;;;;;28.60;93.90;;;;;;5060812;28;20019;-66
2022/05/15 10:51:51;;;;;;;;;;;28.50;92.40;;;;;;5057712;28;20006;-67
2022/05/15 10:57:22;;;;;;;;;;;28.40;91.30;;;;;;5066590;28;19930;-65
2022/05/15 11:00:07;;;;;;;;;;;28.70;92.60;;;;;;5071557;28;19931;-65
2022/05/15 11:02:49;;;;;;;;;;;29.00;92.40;;;;;;5067352;28;19944;-66
2022/05/15 11:05:21;;;;;;;;;;;28.90;91.90;;;;;;5053352;28;19964;-65
2022/05/15 11:07:58;;;;;;;;;;;28.70;92.20;;;;;;5063299;28;20372;-67
2022/05/15 11:10:27;;;;;;;;;;;28.20;92.00;;;;;;5065841;28;20023;-65
2022/05/15 11:13:19;;;;;;;;;;;28.50;92.30;;;;;;5065988;28;19932;-65
2022/05/15 11:16:03;;;;;;;;;;;29.00;92.20;;;;;;5063135;28;19932;-65
2022/05/15 11:18:33;;;;;;;;;;;28.90;92.50;;;;;;5074278;28;19931;-65
2022/05/15 11:21:01;;;;;;;;;;;29.00;92.00;;;;;;5073812;28;20410;-66
2022/05/15 11:23:31;;;;;;;;;;;29.20;90.50;;;;;;5074051;28;19932;-67
2022/05/15 11:26:18;;;;;;;;;;;28.80;91.80;;;;;;5066800;28;19925;-65
2022/05/15 11:28:47;;;;;;;;;;;28.70;92.30;;;;;;5062749;28;20536;-65
2022/05/15 11:31:21;;;;;;;;;;;28.90;92.10;;;;;;5068120;28;20363;-66
2022/05/15 11:33:54;;;;;;;;;;;29.10;91.90;;;;;;5067379;28;19932;-66
2022/05/15 11:36:21;;;;;;;;;;;28.80;92.10;;;;;;5063405;28;19932;-66
2022/05/15 11:38:53;;;;;;;;;;;28.40;92.10;;;;;;5061913;28;20371;-65
2022/05/15 11:41:29;;;;;;;;;;;29.00;92.20;;;;;;5063663;28;19933;-64
2022/05/15 11:43:59;;;;;;;;;;;29.60;90.80;;;;;;5062292;28;19935;-64
2022/05/15 11:46:44;;;;;;;;;;;29.80;91.10;;;;;;5054010;28;19931;-64
2022/05/15 11:49:23;;;;;;;;;;;29.60;90.80;;;;;;5062852;28;19929;-65
2022/05/15 11:52:16;;;;;;;;;;;29.20;90.10;;;;;;5062423;28;19924;-66
2022/05/15 11:54:51;;;;;;;;;;;29.00;88.80;;;;;;5060506;28;19925;-66
2022/05/15 11:57:37;;;;;;;;;;;29.20;90.40;;;;;;5061945;28;19929;-64
2022/05/15 12:00:08;;;;;;;;;;;28.70;90.30;;;;;;5066902;28;20339;-66
2022/05/15 12:02:35;;;;;;;;;;;29.00;91.30;;;;;;5062598;28;20019;-67
2022/05/15 12:05:28;;;;;;;;;;;29.40;91.30;;;;;;5075483;28;19930;-66
2022/05/15 12:07:57;;;;;;;;;;;30.10;90.00;;;;;;5064123;28;19934;-65
2022/05/15 12:10:36;;;;;;;;;;;30.60;88.00;;;;;;5065097;28;20610;-64
2022/05/15 12:13:08;;;;;;;;;;;30.80;86.60;;;;;;5069498;28;20419;-65
2022/05/15 12:15:35;;;;;;;;;;;30.90;85.40;;;;;;5067015;28;19932;-66
2022/05/15 12:18:10;;;;;;;;;;;31.00;86.20;;;;;;5061813;28;20018;-64
2022/05/15 12:20:42;;;;;;;;;;;30.70;86.00;;;;;;5055540;28;19932;-65
2022/05/15 12:23:09;;;;;;;;;;;30.00;85.60;;;;;;5059740;28;19929;-66
2022/05/15 12:25:37;;;;;;;;;;;29.50;86.70;;;;;;5060250;28;19967;-67
2022/05/15 12:31:12;;;;;;;;;;;28.70;86.60;;;;;;5066113;28;20401;-66
2022/05/15 12:34:22;;;;;;;;;;;28.70;87.00;;;;;;5064296;28;19932;-65
2022/05/15 12:36:57;;;;;;;;;;;28.60;86.20;;;;;;5055929;28;19931;-64
2022/05/15 12:39:26;;;;;;;;;;;28.70;88.10;;;;;;5060377;28;20403;-66
2022/05/15 12:41:52;;;;;;;;;;;28.30;87.10;;;;;;5063203;28;19928;-67
2022/05/15 12:44:38;;;;;;;;;;;28.80;87.40;;;;;;5060186;28;20011;-66
2022/05/15 12:47:09;;;;;;;;;;;29.20;85.10;;;;;;5061168;28;19941;-66
2022/05/15 12:49:40;;;;;;;;;;;29.20;85.20;;;;;;5056785;28;19935;-66
2022/05/15 12:52:12;;;;;;;;;;;29.40;85.70;;;;;;5059554;28;20037;-65
2022/05/15 12:54:40;;;;;;;;;;;29.60;85.20;;;;;;5064641;28;19925;-64
2022/05/15 12:57:09;;;;;;;;;;;29.80;87.80;;;;;;5062076;28;19924;-67
2022/05/15 12:59:43;;;;;;;;;;;29.70;85.80;;;;;;5055284;28;19955;-65
2022/05/15 13:02:27;;;;;;;;;;;29.60;85.10;;;;;;5061830;28;19932;-65
2022/05/15 13:04:55;;;;;;;;;;;29.40;85.70;;;;;;5063955;28;19928;-66
2022/05/15 13:07:36;;;;;;;;;;;29.80;85.40;;;;;;5059328;28;19939;-65
2022/05/15 13:10:04;;;;;;;;;;;30.00;86.10;;;;;;5061897;28;19930;-65
2022/05/15 13:12:31;;;;;;;;;;;30.20;85.40;;;;;;5068605;28;19925;-65
2022/05/15 13:15:01;;;;;;;;;;;30.40;85.20;;;;;;5068560;28;20015;-67
2022/05/15 13:17:32;;;;;;;;;;;29.80;83.10;;;;;;5063861;28;19946;-67
2022/05/15 13:19:59;;;;;;;;;;;29.50;83.70;;;;;;5071819;28;19924;-66
2022/05/15 13:22:27;;;;;;;;;;;29.30;83.60;;;;;;5061602;28;20023;-67
2022/05/15 13:24:57;;;;;;;;;;;29.20;83.60;;;;;;5060990;28;19976;-67
2022/05/15 13:27:24;;;;;;;;;;;29.00;84.50;;;;;;5057175;28;19938;-66
2022/05/15 13:29:51;;;;;;;;;;;29.00;82.70;;;;;;5069891;28;20300;-67
2022/05/15 13:32:18;;;;;;;;;;;29.10;83.50;;;;;;5058831;28;20353;-65
2022/05/15 13:34:47;;;;;;;;;;;29.40;83.70;;;;;;5066829;28;19928;-63
2022/05/15 13:37:33;;;;;;;;;;;29.90;82.30;;;;;;5065975;28;20011;-65
2022/05/15 13:43:23;;;;;;;;;;;30.90;82.50;;;;;;5057397;28;19928;-66
2022/05/15 13:45:51;;;;;;;;;;;30.90;81.90;;;;;;5061621;28;20376;-65
2022/05/15 13:48:18;;;;;;;;;;;31.20;80.70;;;;;;5058700;28;20171;-67
2022/05/15 13:51:05;;;;;;;;;;;31.50;79.50;;;;;;5062912;28;19924;-64
2022/05/15 13:53:33;;;;;;;;;;;31.60;79.70;;;;;;5069520;28;19931;-66
2022/05/15 13:56:05;;;;;;;;;;;31.40;79.30;;;;;;5066162;28;19931;-64
2022/05/15 13:58:50;;;;;;;;;;;31.00;80.30;;;;;;5073684;28;19932;-65
2022/05/15 14:01:17;;;;;;;;;;;31.20;80.60;;;;;;5071051;28;19930;-65
2022/05/15 14:03:45;;;;;;;;;;;33.00;79.30;;;;;;5070616;28;19924;-64
2022/05/15 14:06:16;;;;;;;;;;;33.30;79.50;;;;;;5060807;28;19925;-65
2022/05/15 14:08:55;;;;;;;;;;;33.60;78.10;;;;;;5067923;28;19928;-64
2022/05/15 14:11:21;;;;;;;;;;;33.50;76.80;;;;;;5080689;28;19930;-64
2022/05/15 14:13:49;;;;;;;;;;;33.10;76.80;;;;;;5063823;28;19931;-66
2022/05/15 14:16:18;;;;;;;;;;;32.30;77.30;;;;;;5062996;28;19971;-64
2022/05/15 14:18:45;;;;;;;;;;;32.30;78.30;;;;;;5059857;28;19931;-64
2022/05/15 14:21:17;;;;;;;;;;;32.30;78.20;;;;;;5071064;28;19928;-65
2022/05/15 14:23:46;;;;;;;;;;;31.60;78.90;;;;;;5061074;28;19928;-65
2022/05/15 14:26:14;;;;;;;;;;;31.00;81.10;;;;;;5065358;28;19925;-65
2022/05/15 14:28:46;;;;;;;;;;;31.20;81.40;;;;;;5060815;28;19960;-66
2022/05/15 14:31:13;;;;;;;;;;;30.90;80.50;;;;;;5066124;28;20374;-65
2022/05/15 14:33:45;;;;;;;;;;;30.60;81.10;;;;;;5066426;28;19954;-64
2022/05/15 14:36:18;;;;;;;;;;;30.40;80.20;;;;;;5052394;28;20509;-64
2022/05/15 14:38:45;;;;;;;;;;;30.90;80.80;;;;;;5059850;28;20145;-66
2022/05/15 14:41:14;;;;;;;;;;;30.60;80.30;;;;;;5065385;28;19931;-64
2022/05/15 14:43:41;;;;;;;;;;;30.20;79.40;;;;;;5073139;28;19925;-65
2022/05/15 14:46:18;;;;;;;;;;;30.50;79.90;;;;;;5071416;28;19928;-64
2022/05/15 14:48:49;;;;;;;;;;;30.70;80.00;;;;;;5062170;28;19982;-66
2022/05/15 14:51:27;;;;;;;;;;;31.00;79.20;;;;;;5067252;28;19932;-65
2022/05/15 14:53:55;;;;;;;;;;;30.80;78.70;;;;;;5061597;28;19924;-65
2022/05/15 14:56:23;;;;;;;;;;;30.80;79.50;;;;;;5066498;28;20011;-65
2022/05/15 14:58:54;;;;;;;;;;;30.90;81.10;;;;;;5073563;28;20303;-65
2022/05/15 15:01:22;;;;;;;;;;;30.90;79.60;;;;;;5076616;28;20031;-65